Time;durP1;ratioP1;P1;durP2;ratioP2;P2;SDS_P1;SDS_P2;PMS_P1;PMS_P2;Temp;Humidity;BMP_temperature;BMP_pressure;BME280_temperature;BME280_humidity;BME280_pressure;Samples;Min_cycle;Max_cycle;Signal;HPM_P1;HPM_P2
2022/10/22 00:01:58;;;;;;;0.40;0.40;;;13.80;99.90;;;;;;5094143;28;20168;-68
2022/10/22 00:04:24;;;;;;;0.77;0.77;;;13.70;99.90;;;;;;5093947;28;20415;-70
2022/10/22 00:06:50;;;;;;;0.37;0.30;;;13.60;99.90;;;;;;5093741;28;20197;-71
2022/10/22 00:09:16;;;;;;;1.13;1.10;;;13.60;99.90;;;;;;5093489;28;20518;-71
2022/10/22 00:11:42;;;;;;;0.30;0.30;;;13.60;99.90;;;;;;5093789;28;20294;-69
2022/10/22 00:14:08;;;;;;;0.40;0.40;;;13.60;99.90;;;;;;5093799;28;20409;-71
2022/10/22 00:16:34;;;;;;;0.30;0.30;;;13.60;99.90;;;;;;5093832;28;20403;-71
2022/10/22 00:18:59;;;;;;;0.40;0.40;;;13.60;99.90;;;;;;5093387;28;20279;-69
2022/10/22 00:21:27;;;;;;;0.40;0.40;;;13.60;99.90;;;;;;5093553;28;20173;-71
2022/10/22 00:23:54;;;;;;;4.23;0.87;;;13.60;99.90;;;;;;5093623;28;20174;-71
2022/10/22 00:26:20;;;;;;;0.30;0.30;;;13.60;99.90;;;;;;5093347;28;20455;-69
2022/10/22 00:28:46;;;;;;;0.30;0.30;;;13.70;99.90;;;;;;5092034;28;20430;-70
2022/10/22 00:31:14;;;;;;;0.30;0.30;;;13.70;99.90;;;;;;5093693;28;20774;-71
2022/10/22 00:33:40;;;;;;;0.30;0.30;;;13.70;99.90;;;;;;5093652;28;20165;-71
2022/10/22 00:36:06;;;;;;;0.30;0.30;;;13.80;99.90;;;;;;5093461;28;20403;-71
2022/10/22 00:38:33;;;;;;;0.40;0.40;;;13.80;99.90;;;;;;5093673;28;20432;-69
2022/10/22 00:40:58;;;;;;;1.90;0.70;;;13.80;99.90;;;;;;5093267;28;20431;-69
2022/10/22 00:43:24;;;;;;;0.40;0.40;;;13.80;99.90;;;;;;5095834;28;20811;-68
2022/10/22 00:45:50;;;;;;;0.43;0.43;;;13.80;99.90;;;;;;5097748;28;20640;-68
2022/10/22 00:48:20;;;;;;;0.50;0.50;;;13.80;99.90;;;;;;5097516;28;20208;-68
2022/10/22 00:51:06;;;;;;;1.13;1.07;;;13.70;99.90;;;;;;5097380;28;20180;-68
2022/10/22 00:53:52;;;;;;;0.50;0.50;;;13.70;99.90;;;;;;5097903;28;20398;-70
2022/10/22 00:56:19;;;;;;;0.30;0.30;;;13.70;99.90;;;;;;5097443;28;20411;-69
2022/10/22 00:58:51;;;;;;;0.40;0.40;;;13.70;99.90;;;;;;5097226;28;20442;-71
2022/10/22 01:01:21;;;;;;;0.30;0.30;;;13.60;99.90;;;;;;5097335;28;20402;-68
2022/10/22 01:03:48;;;;;;;0.30;0.30;;;13.60;99.90;;;;;;5097158;28;20442;-69
2022/10/22 01:06:29;;;;;;;0.30;0.30;;;13.70;99.90;;;;;;5097422;28;20398;-69
2022/10/22 01:09:31;;;;;;;0.50;0.50;;;13.70;99.90;;;;;;5096972;28;20605;-71
2022/10/22 01:12:00;;;;;;;0.40;0.40;;;13.60;99.90;;;;;;5097272;28;20394;-69
2022/10/22 01:14:37;;;;;;;0.30;0.30;;;13.60;99.90;;;;;;5097082;28;20399;-71
2022/10/22 01:17:14;;;;;;;0.30;0.30;;;13.60;99.90;;;;;;5097216;28;20893;-70
2022/10/22 01:19:58;;;;;;;0.50;0.50;;;13.60;99.90;;;;;;5096680;28;20429;-69
2022/10/22 01:22:42;;;;;;;1.03;0.60;;;13.70;99.90;;;;;;5096979;28;20490;-69
2022/10/22 01:25:35;;;;;;;0.40;0.40;;;13.70;99.90;;;;;;5097078;28;20761;-69
2022/10/22 01:28:13;;;;;;;0.53;0.53;;;13.70;99.90;;;;;;5095488;28;21063;-69
2022/10/22 01:30:40;;;;;;;0.37;0.37;;;13.70;99.90;;;;;;5096634;28;20823;-71
2022/10/22 01:33:09;;;;;;;0.30;0.30;;;13.70;99.90;;;;;;5096762;28;20943;-71
2022/10/22 01:35:38;;;;;;;0.40;0.40;;;13.70;99.90;;;;;;5096757;28;20483;-69
2022/10/22 01:38:08;;;;;;;0.77;0.40;;;13.70;99.90;;;;;;5096497;28;20434;-68
2022/10/22 01:40:35;;;;;;;0.30;0.30;;;13.80;99.90;;;;;;5096796;28;20401;-69
2022/10/22 01:43:03;;;;;;;0.30;0.30;;;13.80;99.90;;;;;;5096992;28;20980;-69
2022/10/22 01:45:33;;;;;;;0.40;0.40;;;13.90;99.90;;;;;;5096832;28;20409;-68
2022/10/22 01:48:20;;;;;;;0.80;0.67;;;13.90;99.90;;;;;;5096464;28;20542;-68
2022/10/22 01:51:03;;;;;;;0.30;0.30;;;13.80;99.90;;;;;;5096204;28;20384;-68
2022/10/22 01:53:54;;;;;;;0.30;0.30;;;13.80;99.90;;;;;;5096525;28;20414;-69
2022/10/22 01:56:42;;;;;;;1.93;1.13;;;13.80;99.90;;;;;;5096216;28;20461;-70
2022/10/22 01:59:27;;;;;;;0.40;0.40;;;13.80;99.90;;;;;;5095506;28;20449;-69
2022/10/22 02:02:12;;;;;;;0.40;0.40;;;13.80;99.90;;;;;;5096168;28;20827;-70
2022/10/22 02:04:45;;;;;;;0.57;0.57;;;13.80;99.90;;;;;;5095218;28;20406;-69
2022/10/22 02:07:14;;;;;;;0.30;0.30;;;13.90;99.90;;;;;;5096181;28;20811;-69
2022/10/22 02:09:42;;;;;;;0.30;0.30;;;13.90;99.90;;;;;;5095861;28;20942;-70
2022/10/22 02:12:09;;;;;;;0.30;0.30;;;13.80;99.90;;;;;;5095980;28;20770;-72
2022/10/22 02:14:40;;;;;;;0.53;0.53;;;13.80;99.90;;;;;;5095955;28;20398;-71
2022/10/22 02:17:11;;;;;;;0.40;0.40;;;13.90;99.90;;;;;;5095994;28;20400;-68
2022/10/22 02:19:52;;;;;;;0.30;0.30;;;13.90;99.90;;;;;;5095701;28;20427;-69
2022/10/22 02:22:18;;;;;;;0.53;0.53;;;14.00;99.90;;;;;;5095754;28;20395;-69
2022/10/22 02:24:44;;;;;;;0.30;0.30;;;13.90;99.90;;;;;;5095902;28;20413;-70
2022/10/22 02:27:20;;;;;;;0.60;0.60;;;14.00;99.90;;;;;;5095488;28;20819;-72
2022/10/22 02:30:23;;;;;;;0.57;0.40;;;14.00;99.90;;;;;;5095425;28;20470;-71
2022/10/22 02:33:12;;;;;;;0.67;0.67;;;13.90;99.90;;;;;;5095782;28;20477;-69
2022/10/22 02:35:40;;;;;;;0.30;0.30;;;13.90;99.90;;;;;;5095768;28;20402;-69
2022/10/22 02:38:07;;;;;;;0.50;0.50;;;13.90;99.90;;;;;;5094142;28;20970;-71
2022/10/22 02:40:33;;;;;;;0.90;0.50;;;13.90;99.90;;;;;;5095180;28;20410;-71
2022/10/22 02:42:58;;;;;;;0.37;0.37;;;13.90;99.90;;;;;;5095356;28;20398;-71
2022/10/22 02:45:24;;;;;;;0.40;0.40;;;13.80;99.90;;;;;;5095350;28;20289;-70
2022/10/22 02:47:50;;;;;;;0.30;0.30;;;13.80;99.90;;;;;;5095119;28;20201;-70
2022/10/22 02:50:16;;;;;;;0.40;0.40;;;13.80;99.90;;;;;;5095167;28;20222;-68
2022/10/22 02:52:45;;;;;;;0.40;0.40;;;13.90;99.90;;;;;;5095327;28;20493;-70
2022/10/22 02:55:10;;;;;;;0.37;0.37;;;13.90;99.90;;;;;;5095195;28;20169;-70
2022/10/22 02:57:36;;;;;;;0.50;0.50;;;14.10;99.90;;;;;;5094939;28;20406;-69
2022/10/22 03:00:07;;;;;;;0.50;0.50;;;14.00;99.90;;;;;;5094882;28;20169;-69
2022/10/22 03:02:33;;;;;;;0.60;0.60;;;14.00;99.90;;;;;;5095178;28;20184;-71
2022/10/22 03:04:59;;;;;;;0.30;0.30;;;14.10;99.90;;;;;;5095261;28;20832;-70
2022/10/22 03:07:24;;;;;;;0.77;0.77;;;14.00;99.90;;;;;;5093906;28;20446;-71
2022/10/22 03:09:50;;;;;;;0.40;0.40;;;14.00;99.90;;;;;;5094537;28;20425;-70
2022/10/22 03:12:16;;;;;;;0.50;0.50;;;13.90;99.90;;;;;;5094764;28;20169;-68
2022/10/22 03:14:41;;;;;;;0.80;0.80;;;13.90;99.90;;;;;;5094759;28;20705;-68
2022/10/22 03:17:07;;;;;;;0.30;0.30;;;13.90;99.90;;;;;;5094870;28;20172;-70
2022/10/22 03:19:33;;;;;;;0.60;0.50;;;13.90;99.90;;;;;;5094419;28;20192;-71
2022/10/22 03:22:20;;;;;;;0.30;0.30;;;14.00;99.90;;;;;;5094635;28;20548;-68
2022/10/22 03:24:49;;;;;;;1.27;0.80;;;14.00;99.90;;;;;;5094772;28;20169;-69
2022/10/22 03:27:17;;;;;;;0.30;0.30;;;14.00;99.90;;;;;;5094375;28;20887;-69
2022/10/22 03:29:43;;;;;;;0.30;0.30;;;14.00;99.90;;;;;;5094224;28;20447;-71
2022/10/22 03:32:09;;;;;;;0.40;0.40;;;14.00;99.90;;;;;;5094502;28;20452;-69
2022/10/22 03:34:34;;;;;;;0.57;0.57;;;14.10;99.90;;;;;;5094302;28;20923;-71
2022/10/22 03:37:01;;;;;;;0.40;0.40;;;14.10;99.90;;;;;;5094479;28;20169;-67
2022/10/22 03:39:29;;;;;;;0.40;0.40;;;14.10;99.90;;;;;;5094006;28;20189;-69
2022/10/22 03:41:55;;;;;;;0.30;0.30;;;14.10;99.90;;;;;;5094111;28;20414;-70
2022/10/22 03:44:21;;;;;;;0.50;0.50;;;14.10;99.90;;;;;;5094682;28;20411;-67
2022/10/22 03:46:47;;;;;;;0.40;0.40;;;14.10;99.90;;;;;;5093990;28;20430;-69
2022/10/22 03:49:13;;;;;;;0.40;0.40;;;14.10;99.90;;;;;;5093820;28;20425;-68
2022/10/22 03:51:38;;;;;;;0.30;0.30;;;14.00;99.90;;;;;;5094177;28;20169;-71
2022/10/22 03:54:04;;;;;;;0.40;0.40;;;14.00;99.90;;;;;;5093973;28;20382;-69
2022/10/22 03:56:30;;;;;;;0.40;0.40;;;14.00;99.90;;;;;;5094379;28;20186;-70
2022/10/22 03:58:57;;;;;;;0.43;0.40;;;14.00;99.90;;;;;;5093688;28;20189;-68
2022/10/22 04:01:23;;;;;;;0.40;0.40;;;13.90;99.90;;;;;;5094077;28;20164;-71
2022/10/22 04:03:49;;;;;;;0.53;0.53;;;13.90;99.90;;;;;;5093793;28;20963;-72
2022/10/22 04:06:15;;;;;;;0.60;0.40;;;13.80;99.90;;;;;;5093739;28;20597;-68
2022/10/22 04:08:42;;;;;;;0.30;0.30;;;13.70;99.90;;;;;;5093760;28;20195;-69
2022/10/22 04:11:08;;;;;;;0.30;0.30;;;13.70;99.90;;;;;;5093825;28;20407;-68
2022/10/22 04:13:34;;;;;;;0.50;0.50;;;13.70;99.90;;;;;;5093865;28;20496;-71
2022/10/22 04:16:20;;;;;;;0.70;0.70;;;13.70;99.90;;;;;;5093845;28;20395;-68
2022/10/22 04:18:47;;;;;;;0.30;0.30;;;13.70;99.90;;;;;;5093184;28;20514;-68
2022/10/22 04:21:15;;;;;;;0.40;0.40;;;13.60;99.90;;;;;;5093865;28;20804;-71
2022/10/22 04:23:49;;;;;;;0.40;0.40;;;13.60;99.90;;;;;;5093649;28;20414;-69
2022/10/22 04:26:15;;;;;;;0.60;0.40;;;13.60;99.90;;;;;;5093414;28;20426;-70
2022/10/22 04:28:42;;;;;;;0.40;0.40;;;13.70;99.90;;;;;;5092514;28;20467;-69
2022/10/22 04:31:13;;;;;;;0.50;0.50;;;13.70;99.90;;;;;;5093522;28;20435;-71
2022/10/22 04:33:39;;;;;;;1.33;1.33;;;13.80;99.90;;;;;;5093487;28;20408;-70
2022/10/22 04:36:07;;;;;;;0.70;0.70;;;13.80;99.90;;;;;;5093661;28;20457;-68
2022/10/22 04:38:33;;;;;;;0.90;0.87;;;13.80;99.90;;;;;;5093376;28;20426;-70
2022/10/22 04:41:08;;;;;;;0.40;0.40;;;13.80;99.90;;;;;;5093386;28;20875;-69
2022/10/22 04:43:33;;;;;;;0.60;0.60;;;13.80;99.90;;;;;;5093559;28;20169;-70
2022/10/22 04:46:00;;;;;;;0.50;0.50;;;13.90;99.90;;;;;;5093325;28;20403;-69
2022/10/22 04:48:25;;;;;;;1.10;1.10;;;14.00;99.90;;;;;;5093169;28;20291;-68
2022/10/22 04:50:51;;;;;;;0.50;0.50;;;14.00;99.90;;;;;;5093246;28;20501;-72
2022/10/22 04:53:17;;;;;;;0.57;0.57;;;14.00;99.90;;;;;;5093362;28;20175;-71
2022/10/22 04:55:43;;;;;;;1.07;1.03;;;14.00;99.90;;;;;;5093423;28;20402;-70
2022/10/22 04:58:08;;;;;;;0.50;0.50;;;14.00;99.90;;;;;;5093193;28;20207;-69
2022/10/22 05:00:34;;;;;;;1.60;1.03;;;14.00;99.90;;;;;;5093027;28;20407;-69
2022/10/22 05:03:00;;;;;;;0.30;0.30;;;14.00;99.90;;;;;;5093358;28;20193;-70
2022/10/22 05:05:25;;;;;;;0.30;0.30;;;14.10;99.90;;;;;;5093198;28;20581;-71
2022/10/22 05:07:51;;;;;;;0.37;0.37;;;14.10;99.90;;;;;;5093222;28;20677;-71
2022/10/22 05:10:17;;;;;;;0.40;0.40;;;14.00;99.90;;;;;;5093003;28;20638;-72
2022/10/22 05:12:42;;;;;;;0.60;0.60;;;14.00;99.90;;;;;;5093117;28;20173;-71
2022/10/22 05:15:08;;;;;;;0.40;0.40;;;13.90;99.90;;;;;;5093155;28;20257;-69
2022/10/22 05:17:37;;;;;;;0.40;0.40;;;14.00;99.90;;;;;;5093149;28;20172;-71
2022/10/22 05:20:04;;;;;;;0.53;0.50;;;13.80;99.90;;;;;;5093354;28;20466;-70
2022/10/22 05:22:30;;;;;;;0.63;0.63;;;13.80;99.90;;;;;;5092185;28;20418;-69
2022/10/22 05:24:56;;;;;;;0.30;0.30;;;13.90;99.90;;;;;;5093283;28;20414;-71
2022/10/22 05:27:21;;;;;;;0.40;0.40;;;14.00;99.90;;;;;;5092880;28;20713;-71
2022/10/22 05:29:47;;;;;;;0.40;0.40;;;13.90;99.90;;;;;;5093879;28;20204;-71
2022/10/22 05:32:13;;;;;;;0.60;0.40;;;14.00;99.90;;;;;;5096994;28;20538;-68
2022/10/22 05:34:38;;;;;;;0.40;0.40;;;14.00;99.90;;;;;;5096990;28;20173;-70
2022/10/22 05:37:04;;;;;;;0.60;0.60;;;14.00;99.90;;;;;;5096903;28;20173;-70
2022/10/22 05:39:29;;;;;;;1.90;1.40;;;14.00;99.90;;;;;;5096504;28;20665;-71
2022/10/22 05:41:55;;;;;;;0.50;0.50;;;14.00;99.90;;;;;;5096803;28;20626;-68
2022/10/22 05:44:21;;;;;;;0.77;0.77;;;14.00;99.90;;;;;;5096829;28;20237;-69
2022/10/22 05:46:46;;;;;;;0.50;0.40;;;14.00;99.90;;;;;;5096467;28;20207;-68
2022/10/22 05:49:15;;;;;;;0.50;0.50;;;14.10;99.90;;;;;;5096439;28;20193;-71
2022/10/22 05:51:41;;;;;;;0.40;0.40;;;14.10;99.90;;;;;;5096588;28;20169;-70
2022/10/22 05:54:09;;;;;;;0.60;0.50;;;14.10;99.90;;;;;;5096558;28;20468;-67
2022/10/22 05:56:36;;;;;;;0.40;0.40;;;14.10;99.90;;;;;;5096548;28;20282;-68
2022/10/22 05:59:01;;;;;;;0.50;0.50;;;14.10;99.90;;;;;;5096095;28;20427;-69
2022/10/22 06:01:34;;;;;;;0.70;0.70;;;14.00;99.90;;;;;;5096627;28;20417;-68
2022/10/22 06:04:01;;;;;;;1.43;0.60;;;14.10;99.90;;;;;;5095144;28;20173;-70
2022/10/22 06:06:38;;;;;;;0.57;0.57;;;14.10;99.90;;;;;;5096031;28;20911;-70
2022/10/22 06:09:23;;;;;;;0.50;0.50;;;14.10;99.90;;;;;;5096109;28;20461;-71
2022/10/22 06:11:49;;;;;;;0.37;0.37;;;14.10;99.90;;;;;;5096336;28;20422;-68
2022/10/22 06:14:16;;;;;;;0.60;0.60;;;14.10;99.90;;;;;;5096308;28;20543;-70
2022/10/22 06:16:42;;;;;;;0.50;0.40;;;14.10;99.90;;;;;;5096179;28;20414;-70
2022/10/22 06:19:12;;;;;;;0.60;0.60;;;14.10;99.90;;;;;;5095902;28;20431;-69
2022/10/22 06:21:38;;;;;;;0.77;0.77;;;14.10;99.90;;;;;;5095859;28;20468;-70
2022/10/22 06:24:04;;;;;;;0.40;0.40;;;14.10;99.90;;;;;;5096037;28;20411;-69
2022/10/22 06:26:30;;;;;;;0.30;0.30;;;14.10;99.90;;;;;;5095723;28;20541;-72
2022/10/22 06:28:57;;;;;;;0.50;0.50;;;14.10;99.90;;;;;;5095510;28;20517;-69
2022/10/22 06:31:24;;;;;;;0.60;0.60;;;14.20;99.90;;;;;;5095695;28;20214;-70
2022/10/22 06:33:49;;;;;;;0.77;0.60;;;14.20;99.90;;;;;;5095814;28;20434;-70
2022/10/22 06:36:18;;;;;;;0.53;0.53;;;14.20;99.90;;;;;;5096019;28;20476;-68
2022/10/22 06:38:44;;;;;;;0.33;0.33;;;14.20;99.90;;;;;;5095429;28;20199;-71
2022/10/22 06:41:12;;;;;;;1.70;0.60;;;14.20;99.90;;;;;;5095193;28;20754;-70
2022/10/22 06:43:38;;;;;;;0.73;0.73;;;14.30;99.90;;;;;;5095685;28;20165;-68
2022/10/22 06:46:07;;;;;;;1.00;0.60;;;14.40;99.90;;;;;;5095614;28;20437;-68
2022/10/22 06:48:34;;;;;;;0.80;0.80;;;14.30;99.90;;;;;;5095301;28;20493;-71
2022/10/22 06:51:02;;;;;;;0.83;0.83;;;14.30;99.90;;;;;;5095174;28;20899;-72
2022/10/22 06:53:28;;;;;;;0.80;0.80;;;14.30;99.90;;;;;;5095301;28;20403;-69
2022/10/22 06:55:54;;;;;;;0.70;0.70;;;14.40;99.90;;;;;;5095285;28;20764;-70
2022/10/22 06:58:20;;;;;;;0.40;0.40;;;14.40;99.90;;;;;;5095737;28;20423;-69
2022/10/22 07:00:45;;;;;;;0.50;0.40;;;14.40;99.90;;;;;;5094916;28;20212;-69
2022/10/22 07:03:12;;;;;;;1.50;1.40;;;14.40;99.90;;;;;;5095213;28;20184;-72
2022/10/22 07:05:38;;;;;;;0.70;0.70;;;14.30;99.90;;;;;;5094983;28;20168;-71
2022/10/22 07:08:04;;;;;;;0.70;0.70;;;14.30;99.90;;;;;;5094833;28;20988;-68
2022/10/22 07:10:30;;;;;;;0.70;0.70;;;14.30;99.90;;;;;;5094798;28;20404;-69
2022/10/22 07:12:57;;;;;;;1.00;1.00;;;14.30;99.90;;;;;;5095231;28;20766;-69
2022/10/22 07:15:22;;;;;;;0.40;0.40;;;14.40;99.90;;;;;;5094843;28;20409;-72
2022/10/22 07:17:48;;;;;;;0.40;0.40;;;14.50;99.90;;;;;;5094848;28;20435;-69
2022/10/22 07:20:15;;;;;;;0.60;0.60;;;14.50;99.90;;;;;;5094600;28;20180;-69
2022/10/22 07:22:41;;;;;;;1.13;1.13;;;14.50;99.90;;;;;;5094766;28;20172;-71
2022/10/22 07:25:06;;;;;;;0.70;0.70;;;14.60;99.90;;;;;;5094882;28;20408;-71
2022/10/22 07:27:32;;;;;;;0.53;0.53;;;14.60;99.90;;;;;;5094474;28;20209;-71
2022/10/22 07:30:00;;;;;;;0.47;0.47;;;14.70;99.90;;;;;;5094426;28;20411;-71
2022/10/22 07:32:26;;;;;;;0.40;0.40;;;14.80;99.90;;;;;;5094661;28;20633;-68
2022/10/22 07:34:52;;;;;;;0.60;0.60;;;14.80;99.90;;;;;;5094649;28;20410;-68
2022/10/22 07:37:20;;;;;;;0.70;0.70;;;14.80;99.90;;;;;;5094390;28;20255;-69
2022/10/22 07:39:47;;;;;;;0.50;0.50;;;14.90;99.90;;;;;;5094213;28;20437;-72
2022/10/22 07:42:12;;;;;;;1.07;0.97;;;15.00;99.90;;;;;;5094374;28;20454;-71
2022/10/22 07:44:38;;;;;;;0.40;0.40;;;15.10;99.90;;;;;;5094451;28;20491;-69
2022/10/22 07:47:03;;;;;;;0.70;0.70;;;15.10;99.90;;;;;;5094322;28;20207;-71
2022/10/22 07:49:29;;;;;;;0.53;0.53;;;15.20;99.90;;;;;;5094227;28;20660;-72
2022/10/22 07:51:55;;;;;;;1.63;1.63;;;15.30;99.90;;;;;;5093937;28;20539;-72
2022/10/22 07:54:21;;;;;;;0.90;0.90;;;15.30;99.90;;;;;;5094156;28;20168;-70
2022/10/22 07:56:47;;;;;;;0.57;0.57;;;15.30;99.90;;;;;;5094336;28;20407;-69
2022/10/22 07:59:13;;;;;;;0.40;0.40;;;15.40;99.90;;;;;;5093809;28;20429;-70
2022/10/22 08:01:38;;;;;;;0.80;0.80;;;15.50;99.90;;;;;;5093920;28;20191;-70
2022/10/22 08:04:07;;;;;;;0.77;0.77;;;15.70;99.90;;;;;;5094238;28;20175;-69
2022/10/22 08:06:33;;;;;;;0.50;0.50;;;15.70;99.90;;;;;;5093924;28;20204;-69
2022/10/22 08:08:59;;;;;;;0.60;0.60;;;15.70;99.90;;;;;;5093724;28;20429;-69
2022/10/22 08:11:25;;;;;;;0.60;0.60;;;15.80;99.90;;;;;;5094038;28;20761;-69
2022/10/22 08:13:51;;;;;;;1.40;0.90;;;15.90;99.90;;;;;;5094313;28;20165;-69
2022/10/22 08:16:17;;;;;;;1.17;0.93;;;15.90;99.90;;;;;;5093986;28;20766;-69
2022/10/22 08:18:43;;;;;;;0.53;0.53;;;16.10;99.90;;;;;;5093752;28;20422;-70
2022/10/22 08:21:10;;;;;;;3.07;1.53;;;16.20;99.90;;;;;;5093666;28;20402;-70
2022/10/22 08:23:35;;;;;;;0.83;0.83;;;16.40;99.90;;;;;;5093833;28;20253;-69
2022/10/22 08:26:01;;;;;;;1.03;1.03;;;16.90;99.90;;;;;;5093639;28;20462;-70
2022/10/22 08:28:28;;;;;;;0.97;0.60;;;17.30;99.90;;;;;;5093530;28;20235;-69
2022/10/22 08:30:54;;;;;;;0.50;0.50;;;17.50;99.90;;;;;;5093459;28;20407;-69
2022/10/22 08:33:20;;;;;;;0.60;0.60;;;17.60;99.90;;;;;;5093618;28;20410;-69
2022/10/22 08:35:50;;;;;;;0.50;0.50;;;17.70;99.90;;;;;;5093613;28;20407;-71
2022/10/22 08:38:17;;;;;;;0.30;0.30;;;17.80;99.90;;;;;;5093550;28;20434;-70
2022/10/22 08:40:46;;;;;;;0.70;0.43;;;17.80;99.90;;;;;;5093308;28;20418;-70
2022/10/22 08:43:44;;;;;;;0.93;0.53;;;17.60;99.90;;;;;;5093677;28;20411;-69
2022/10/22 08:46:45;;;;;;;0.40;0.40;;;17.40;99.90;;;;;;5093704;28;20492;-71
2022/10/22 08:49:19;;;;;;;0.40;0.40;;;17.00;99.90;;;;;;5093379;28;20475;-68
2022/10/22 08:51:45;;;;;;;0.30;0.30;;;16.90;99.90;;;;;;5093953;28;20403;-71
2022/10/22 08:54:26;;;;;;;0.70;0.70;;;16.90;99.90;;;;;;5093403;28;20403;-70
2022/10/22 08:57:15;;;;;;;0.30;0.30;;;16.90;99.90;;;;;;5093765;28;20177;-71
2022/10/22 09:00:05;;;;;;;0.40;0.40;;;16.90;99.90;;;;;;5079851;28;20443;-69
2022/10/22 09:02:56;;;;;;;0.50;0.50;;;16.90;99.90;;;;;;5092562;28;20428;-70
2022/10/22 09:06:12;;;;;;;0.30;0.30;;;17.00;99.90;;;;;;5097303;28;20414;-69
2022/10/22 09:08:39;;;;;;;0.37;0.37;;;16.80;99.90;;;;;;4995659;28;20489;-70
2022/10/22 09:11:13;;;;;;;0.30;0.30;;;16.70;99.90;;;;;;5087566;28;20498;-69
2022/10/22 09:13:42;;;;;;;0.30;0.30;;;16.70;99.90;;;;;;5097305;28;20405;-69
2022/10/22 09:16:31;;;;;;;0.40;0.40;;;16.80;99.90;;;;;;5097353;28;20736;-69
2022/10/22 09:19:16;;;;;;;0.50;0.50;;;17.00;99.90;;;;;;5096899;28;20529;-66
2022/10/22 09:22:17;;;;;;;0.30;0.30;;;17.20;99.90;;;;;;5097158;28;20818;-69
2022/10/22 09:24:57;;;;;;;0.40;0.40;;;17.40;99.90;;;;;;5097169;28;20407;-68
2022/10/22 09:27:29;;;;;;;0.37;0.37;;;17.60;99.90;;;;;;5096753;28;20973;-70
2022/10/22 09:29:55;;;;;;;0.40;0.40;;;17.70;99.90;;;;;;5096828;28;20445;-71
2022/10/22 09:32:22;;;;;;;1.70;0.77;;;17.70;99.90;;;;;;5097044;28;20402;-70
2022/10/22 09:34:49;;;;;;;0.67;0.67;;;17.60;99.90;;;;;;5096965;28;20460;-67
2022/10/22 09:37:23;;;;;;;0.47;0.47;;;17.80;99.90;;;;;;5096853;28;20806;-68
2022/10/22 09:39:53;;;;;;;0.50;0.50;;;18.30;99.90;;;;;;5096502;28;20428;-67
2022/10/22 09:42:21;;;;;;;0.30;0.30;;;19.40;99.90;;;;;;5096704;28;20472;-71
2022/10/22 09:44:54;;;;;;;0.30;0.30;;;20.80;99.20;;;;;;5096725;28;20452;-71
2022/10/22 09:47:33;;;;;;;0.40;0.40;;;21.10;95.60;;;;;;5096724;28;20792;-67
2022/10/22 09:50:18;;;;;;;0.30;0.30;;;20.70;95.90;;;;;;5096472;28;20410;-70
2022/10/22 09:52:44;;;;;;;0.40;0.40;;;20.20;96.90;;;;;;5096691;28;20394;-68
2022/10/22 09:55:17;;;;;;;0.30;0.30;;;19.80;98.00;;;;;;5096597;28;20410;-69
2022/10/22 09:57:51;;;;;;;0.40;0.40;;;19.60;99.00;;;;;;5096492;28;20173;-67
2022/10/22 10:00:19;;;;;;;0.40;0.40;;;19.60;99.90;;;;;;5096163;28;20391;-70
2022/10/22 10:02:45;;;;;;;1.17;0.70;;;20.00;99.80;;;;;;5091384;28;20768;-68
2022/10/22 10:05:19;;;;;;;0.40;0.40;;;20.80;99.30;;;;;;5096305;28;20415;-69
2022/10/22 10:07:46;;;;;;;0.40;0.40;;;21.80;96.00;;;;;;5096344;28;20208;-69
2022/10/22 10:10:26;;;;;;;0.30;0.30;;;22.10;94.30;;;;;;5094265;28;20407;-69
2022/10/22 10:13:10;;;;;;;0.40;0.40;;;22.30;95.10;;;;;;5096864;28;20850;-70
2022/10/22 10:15:46;;;;;;;0.40;0.40;;;22.90;93.10;;;;;;5095726;28;20434;-67
2022/10/22 10:18:27;;;;;;;0.30;0.30;;;22.90;92.60;;;;;;5096538;28;20803;-70
2022/10/22 10:21:04;;;;;;;0.70;0.67;;;22.70;92.40;;;;;;5096580;28;20379;-69
2022/10/22 10:23:52;;;;;;;0.73;0.50;;;22.90;93.30;;;;;;5096262;28;20734;-70
2022/10/22 10:26:36;;;;;;;0.30;0.30;;;23.70;91.30;;;;;;5095668;28;20426;-71
2022/10/22 10:29:20;;;;;;;0.40;0.40;;;24.30;90.70;;;;;;5095676;28;20849;-68
2022/10/22 10:31:45;;;;;;;0.50;0.50;;;24.10;90.00;;;;;;5096187;28;20433;-68
2022/10/22 10:34:16;;;;;;;0.40;0.40;;;23.30;91.50;;;;;;5096221;28;20377;-70
2022/10/22 10:37:11;;;;;;;0.30;0.30;;;22.40;90.70;;;;;;5096040;28;20176;-67
2022/10/22 10:39:58;;;;;;;0.50;0.50;;;21.50;93.90;;;;;;5068191;28;21021;-70
2022/10/22 10:42:29;;;;;;;0.30;0.30;;;20.70;95.50;;;;;;5095845;28;20409;-69
2022/10/22 10:45:00;;;;;;;1.00;0.90;;;20.40;95.90;;;;;;5095756;28;20487;-69
2022/10/22 10:47:59;;;;;;;0.30;0.30;;;20.30;96.30;;;;;;5095438;28;20431;-68
2022/10/22 10:50:30;;;;;;;0.40;0.40;;;20.00;97.10;;;;;;5095213;28;20395;-68
2022/10/22 10:53:13;;;;;;;0.57;0.37;;;19.90;97.60;;;;;;5095543;28;20422;-68
2022/10/22 10:55:57;;;;;;;0.30;0.30;;;20.00;95.60;;;;;;5095821;28;20399;-69
2022/10/22 10:58:28;;;;;;;0.30;0.30;;;19.70;96.80;;;;;;5095407;28;20434;-70
2022/10/22 11:01:08;;;;;;;0.47;0.47;;;19.80;96.40;;;;;;5095086;28;20494;-70
2022/10/22 11:03:47;;;;;;;0.37;0.37;;;19.80;95.20;;;;;;5095529;28;20568;-69
2022/10/22 11:06:19;;;;;;;0.33;0.33;;;19.60;94.50;;;;;;5095658;28;20776;-69
2022/10/22 11:09:09;;;;;;;0.40;0.40;;;19.40;95.10;;;;;;5095165;28;20438;-68
2022/10/22 11:12:05;;;;;;;0.50;0.50;;;19.40;95.80;;;;;;5077211;28;20414;-70
2022/10/22 11:14:40;;;;;;;0.67;0.67;;;19.40;98.30;;;;;;5094707;28;20450;-70
2022/10/22 11:17:17;;;;;;;0.37;0.37;;;19.40;96.40;;;;;;5095430;28;20476;-67
2022/10/22 11:19:51;;;;;;;0.50;0.47;;;19.30;95.60;;;;;;5094926;28;20426;-69
2022/10/22 11:22:32;;;;;;;0.40;0.40;;;19.30;97.00;;;;;;5095151;28;20398;-67
2022/10/22 11:25:20;;;;;;;0.40;0.40;;;19.10;97.50;;;;;;5095148;28;20914;-67
2022/10/22 11:28:04;;;;;;;0.30;0.30;;;18.60;99.90;;;;;;5093132;28;20458;-70
2022/10/22 11:30:36;;;;;;;0.30;0.30;;;18.80;99.90;;;;;;5094681;28;20899;-68
2022/10/22 11:33:09;;;;;;;0.40;0.40;;;19.00;99.30;;;;;;5095001;28;20413;-70
2022/10/22 11:35:39;;;;;;;0.30;0.30;;;18.80;97.80;;;;;;5095137;28;20406;-69
2022/10/22 11:38:09;;;;;;;0.40;0.40;;;19.00;96.40;;;;;;5094982;28;20511;-69
2022/10/22 11:40:56;;;;;;;0.40;0.40;;;19.00;95.50;;;;;;5094191;28;20402;-70
2022/10/22 11:43:50;;;;;;;0.40;0.40;;;19.20;96.50;;;;;;5093943;28;20433;-67
2022/10/22 11:46:16;;;;;;;0.30;0.30;;;19.30;95.70;;;;;;5094470;28;20434;-70
2022/10/22 11:48:42;;;;;;;0.40;0.40;;;19.20;98.00;;;;;;5094585;28;20500;-69
2022/10/22 11:51:41;;;;;;;0.40;0.40;;;19.20;96.00;;;;;;5094300;28;20224;-68
2022/10/22 11:54:28;;;;;;;0.40;0.40;;;19.30;95.60;;;;;;5039689;28;20415;-69
2022/10/22 11:57:17;;;;;;;1.10;1.10;;;19.30;95.00;;;;;;5094832;28;20496;-67
2022/10/22 11:59:46;;;;;;;0.30;0.30;;;19.20;96.20;;;;;;5094148;28;20914;-69
2022/10/22 12:02:27;;;;;;;0.30;0.30;;;19.20;95.30;;;;;;5094437;28;20420;-69
2022/10/22 12:04:55;;;;;;;0.40;0.40;;;19.20;94.20;;;;;;5094439;28;20447;-71
2022/10/22 12:07:51;;;;;;;0.70;0.70;;;19.10;94.80;;;;;;5095378;28;20443;-68
2022/10/22 12:10:22;;;;;;;0.30;0.30;;;18.90;94.60;;;;;;5058992;28;20899;-68
2022/10/22 12:13:04;;;;;;;0.50;0.50;;;18.70;95.60;;;;;;5094283;28;20815;-70
2022/10/22 12:15:29;;;;;;;0.30;0.30;;;18.50;96.30;;;;;;5094529;28;20902;-70
2022/10/22 12:18:01;;;;;;;0.30;0.30;;;18.20;95.50;;;;;;5093816;28;20426;-70
2022/10/22 12:20:27;;;;;;;0.50;0.50;;;18.10;94.30;;;;;;5093517;28;20288;-68
2022/10/22 12:22:56;;;;;;;0.40;0.40;;;18.20;96.80;;;;;;5094308;28;20400;-68
2022/10/22 12:25:25;;;;;;;0.30;0.30;;;18.20;98.50;;;;;;5094075;28;20818;-67
2022/10/22 12:27:59;;;;;;;0.40;0.40;;;18.30;99.90;;;;;;5094260;28;20546;-68
2022/10/22 12:30:35;;;;;;;0.30;0.30;;;18.30;99.90;;;;;;5093659;28;20760;-69
2022/10/22 12:33:04;;;;;;;2.57;2.37;;;18.30;99.90;;;;;;5094376;28;20493;-71
2022/10/22 12:35:32;;;;;;;0.40;0.40;;;18.00;99.90;;;;;;5094962;28;20426;-69
2022/10/22 12:38:07;;;;;;;0.40;0.40;;;17.90;99.90;;;;;;5093935;28;20772;-68
2022/10/22 12:40:34;;;;;;;0.30;0.30;;;17.70;99.90;;;;;;5093588;28;20451;-66
2022/10/22 12:43:11;;;;;;;0.50;0.50;;;17.50;99.90;;;;;;5093808;28;20800;-70
2022/10/22 12:45:38;;;;;;;0.33;0.33;;;17.40;99.90;;;;;;5093878;28;20788;-70
2022/10/22 12:48:13;;;;;;;0.60;0.60;;;17.30;99.90;;;;;;5093746;28;20454;-68
2022/10/22 12:50:45;;;;;;;2.30;0.60;;;17.20;99.90;;;;;;5093916;28;20883;-70
2022/10/22 12:53:18;;;;;;;0.40;0.40;;;17.00;99.90;;;;;;5093625;28;20402;-68
2022/10/22 12:55:49;;;;;;;4.43;1.03;;;16.90;99.90;;;;;;5093799;28;20915;-69
2022/10/22 12:58:20;;;;;;;0.50;0.50;;;16.70;99.90;;;;;;5093467;28;20915;-70
2022/10/22 13:00:46;;;;;;;0.47;0.47;;;16.60;99.90;;;;;;5093611;28;20414;-68
2022/10/22 13:03:38;;;;;;;1.17;1.17;;;16.50;99.90;;;;;;5093787;28;20410;-67
2022/10/22 13:06:19;;;;;;;0.73;0.70;;;16.50;99.90;;;;;;5093705;28;20403;-70
2022/10/22 13:09:02;;;;;;;0.60;0.60;;;16.50;99.90;;;;;;5093547;28;20810;-69
2022/10/22 13:11:33;;;;;;;0.40;0.40;;;16.40;99.90;;;;;;5093818;28;20493;-68